首页
METAR-TAF:

METAR-TAF

机场 :

真纳国际机场

卡拉奇, 巴基斯坦

纬度: 24-54N, 经度: 067-08E, 海拔: 21米

当前天气观测

该预报发布于15分钟前的19:25 UTC
静风
温度 19°C
湿度 64%
气压 1018 hPa
能見度: 6000

METAR: OPKC 171925Z 00000KT 6000 NSC 19/12 Q1018 NOSIG

时间: 00:40 (19:40 UTC)

预报

该预报发布于3小时和40分钟前的16:00 UTC
预报有效从17日的 18点(UTC)到 18日的 24点(UTC)
风速7节,风向东北,有时为17节阵风
能見度: 5000
少量云层高于10000英尺
短暂存在
从 18日的 00点(UTC)到 18日的 04点(UTC)
风速10节,风向北转东北
能見度: 3000
从 18日的 0600点(UTC)
风速10节,风向东北,有时为22节阵风
能見度: 6000
散云层高于10000英尺

TAF: OPKC 171600Z 1718/1824 04007G17KT 5000 HZ FEW100 TEMPO 1800/1804 02010KT 3000 HZ NSC FM180600 05010G22KT 6000 SCT100

超过4000个机场的气象观测和天气预报(METAR&TAF报告)。

可查询的气象台以黄色和红色小点在地图上表示。

将鼠标移到小点上方,可查看气象台名称。

然后点击查看天气观测和预报。

如需切换地图:点击带黑十字的绿色按钮放大地图;点击带横线的绿色按钮缩小地图;或者点击绿色箭头查看邻近地区的地图。


METAR-TAF: